createdAt,value
2018-12-16T00:00:25.424Z,-0.41
2018-12-16T00:01:24.447Z,-0.38
2018-12-16T00:02:24.409Z,-0.38
2018-12-16T00:03:24.391Z,-0.42
2018-12-16T00:04:24.438Z,-0.46
2018-12-16T00:05:24.470Z,-0.45
2018-12-16T00:06:24.525Z,-0.39
2018-12-16T00:07:24.559Z,-0.48
2018-12-16T00:08:24.449Z,-0.42
2018-12-16T00:09:24.425Z,-0.56
2018-12-16T00:10:24.534Z,-0.56
2018-12-16T00:15:41.639Z,-0.45
2018-12-16T00:15:54.101Z,-0.49
2018-12-16T00:16:54.072Z,-0.39
2018-12-16T00:17:54.351Z,-0.46
2018-12-16T00:18:54.047Z,-0.46
2018-12-16T00:19:54.116Z,-0.54
2018-12-16T00:20:54.124Z,-0.48
2018-12-16T00:21:54.184Z,-0.39
2018-12-16T00:22:54.038Z,-0.53
2018-12-16T00:23:54.043Z,-0.48
2018-12-16T00:24:54.021Z,-0.45
2018-12-16T00:25:54.054Z,-0.54
2018-12-16T00:26:54.062Z,-0.53
2018-12-16T00:27:53.985Z,-0.56
2018-12-16T00:28:54.117Z,-0.46
2018-12-16T00:29:54.123Z,-0.54
2018-12-16T00:30:54.025Z,-0.56
2018-12-16T00:31:54.176Z,-0.56
2018-12-16T00:32:54.125Z,-0.49
2018-12-16T00:33:54.051Z,-0.51
2018-12-16T00:34:54.016Z,-0.64
2018-12-16T00:35:54.060Z,-0.49
2018-12-16T00:36:54.038Z,-0.66
2018-12-16T00:37:54.033Z,-0.62
2018-12-16T00:38:54.038Z,-0.64
2018-12-16T00:39:54.152Z,-0.63
2018-12-16T00:40:54.046Z,-0.64
2018-12-16T00:41:54.136Z,-0.64
2018-12-16T00:42:54.069Z,-0.69
2018-12-16T00:43:54.009Z,-0.59
2018-12-16T00:44:54.050Z,-0.66
2018-12-16T00:45:54.295Z,-0.66
2018-12-16T00:46:54.068Z,-0.64
2018-12-16T00:47:54.048Z,-0.6
2018-12-16T00:48:54.154Z,-0.6
2018-12-16T00:49:54.069Z,-0.7
2018-12-16T00:50:54.017Z,-0.7
2018-12-16T00:51:54.049Z,-0.67
2018-12-16T00:52:54.035Z,-0.7
2018-12-16T00:53:54.040Z,-0.77
2018-12-16T00:54:53.980Z,-0.77
2018-12-16T00:55:54.161Z,-0.77
2018-12-16T00:56:54.053Z,-0.77
2018-12-16T00:57:54.060Z,-0.67
2018-12-16T00:58:54.108Z,-0.8
2018-12-16T00:59:54.072Z,-0.75
2018-12-16T01:00:54.007Z,-0.91
2018-12-16T01:01:54.087Z,-0.75
2018-12-16T01:02:54.069Z,-0.81
2018-12-16T01:03:54.068Z,-0.87
2018-12-16T01:04:54.056Z,-0.89
2018-12-16T01:05:54.089Z,-0.75
2018-12-16T01:06:54.021Z,-0.85
2018-12-16T01:07:54.043Z,-0.8
2018-12-16T01:08:55.405Z,-0.82
2018-12-16T01:09:54.038Z,-0.78
2018-12-16T01:10:54.024Z,-0.82
2018-12-16T01:11:54.047Z,-0.78
2018-12-16T01:12:54.085Z,-0.8
2018-12-16T01:13:54.000Z,-0.8
2018-12-16T01:14:54.025Z,-0.96
2018-12-16T01:15:54.077Z,-0.94
2018-12-16T01:16:54.096Z,-0.96
2018-12-16T01:17:54.174Z,-0.85
2018-12-16T01:18:54.107Z,-0.89
2018-12-16T01:19:54.027Z,-1
2018-12-16T01:20:54.150Z,-1.06
2018-12-16T01:21:54.034Z,-0.96
2018-12-16T01:22:54.048Z,-1.04
2018-12-16T01:23:54.101Z,-1
2018-12-16T01:24:54.039Z,-1.07
2018-12-16T01:25:54.052Z,-1.04
2018-12-16T01:26:54.052Z,-1.06
2018-12-16T01:27:54.031Z,-1.01
2018-12-16T01:28:54.189Z,-1.11
2018-12-16T01:29:54.106Z,-1.03
2018-12-16T01:30:54.031Z,-0.96
2018-12-16T01:31:54.078Z,-0.99
2018-12-16T01:37:11.630Z,-1.09
2018-12-16T01:37:23.574Z,-1.14
2018-12-16T01:38:23.615Z,-1.06
2018-12-16T01:39:23.662Z,-1.21
2018-12-16T01:40:23.626Z,-1.18
2018-12-16T01:41:23.571Z,-1.19
2018-12-16T01:42:23.607Z,-1.19
2018-12-16T01:43:23.584Z,-1.21
2018-12-16T01:44:23.567Z,-1.19
2018-12-16T01:45:23.528Z,-1.14
2018-12-16T01:46:23.604Z,-1.27
2018-12-16T01:47:23.595Z,-1.25
2018-12-16T01:48:23.721Z,-1.18
2018-12-16T01:49:23.568Z,-1.19
2018-12-16T01:50:23.563Z,-1.25
2018-12-16T01:51:23.638Z,-1.18
2018-12-16T01:52:24.937Z,-1.27
2018-12-16T01:53:23.596Z,-1.24
2018-12-16T01:54:23.575Z,-1.27
2018-12-16T01:55:24.353Z,-1.22
2018-12-16T01:56:23.699Z,-1.22
2018-12-16T01:57:23.635Z,-1.27
2018-12-16T01:58:23.616Z,-1.18
2018-12-16T01:59:23.595Z,-1.29
2018-12-16T02:00:23.640Z,-1.22
2018-12-16T02:01:23.689Z,-1.19
2018-12-16T02:02:24.602Z,-1.25
2018-12-16T02:03:24.156Z,-1.33
2018-12-16T02:04:23.578Z,-1.42
2018-12-16T02:05:24.176Z,-1.35
2018-12-16T02:06:23.632Z,-1.35
2018-12-16T02:10:53.386Z,-1.35
2018-12-16T02:11:53.463Z,-1.36
2018-12-16T02:12:53.398Z,-1.35
2018-12-16T02:13:53.374Z,-1.4
2018-12-16T02:14:53.416Z,-1.43
2018-12-16T02:15:53.424Z,-1.36
2018-12-16T02:16:53.393Z,-1.39
2018-12-16T02:17:53.378Z,-1.39
2018-12-16T02:18:53.364Z,-1.39
2018-12-16T02:19:53.340Z,-1.42
2018-12-16T02:20:53.558Z,-1.45
2018-12-16T02:21:53.366Z,-1.48
2018-12-16T02:22:59.557Z,-1.43
2018-12-16T02:23:53.550Z,-1.43
2018-12-16T02:24:53.448Z,-1.46
2018-12-16T02:25:53.421Z,-1.51
2018-12-16T02:26:53.392Z,-1.48
2018-12-16T02:27:53.381Z,-1.43
2018-12-16T02:28:53.418Z,-1.48
2018-12-16T02:29:53.418Z,-1.36
2018-12-16T02:30:53.388Z,-1.48
2018-12-16T02:31:53.410Z,-1.4
2018-12-16T02:32:53.341Z,-1.4
2018-12-16T02:33:53.422Z,-1.39
2018-12-16T02:34:53.429Z,-1.39
2018-12-16T02:35:53.417Z,-1.48
2018-12-16T02:36:53.598Z,-1.3
2018-12-16T02:37:53.450Z,-1.38
2018-12-16T02:38:53.399Z,-1.38
2018-12-16T02:39:53.388Z,-1.38
2018-12-16T02:47:21.737Z,-1.4
2018-12-16T02:47:33.771Z,-1.42
2018-12-16T02:48:33.754Z,-1.51
2018-12-16T02:49:33.709Z,-1.48
2018-12-16T02:50:33.817Z,-1.45
2018-12-16T02:51:33.769Z,-1.54
2018-12-16T02:52:33.800Z,-1.45
2018-12-16T02:53:33.818Z,-1.57
2018-12-16T02:54:33.736Z,-1.48
2018-12-16T02:55:33.817Z,-1.36
2018-12-16T02:56:33.770Z,-1.48
2018-12-16T02:57:33.834Z,-1.45
2018-12-16T02:58:33.768Z,-1.38
2018-12-16T02:59:33.775Z,-1.4
2018-12-16T03:00:33.931Z,-1.53
2018-12-16T03:01:33.827Z,-1.43
2018-12-16T03:02:33.820Z,-1.53
2018-12-16T03:03:33.768Z,-1.45
2018-12-16T03:04:33.848Z,-1.46
2018-12-16T03:05:33.800Z,-1.53
2018-12-16T03:06:33.841Z,-1.43
2018-12-16T03:07:33.797Z,-1.56
2018-12-16T03:08:33.841Z,-1.56
2018-12-16T03:09:33.780Z,-1.46
2018-12-16T03:10:33.718Z,-1.5
2018-12-16T03:11:33.792Z,-1.54
2018-12-16T03:13:38.136Z,-1.4
2018-12-16T03:14:40.263Z,-1.46
2018-12-16T03:15:38.300Z,-1.48
2018-12-16T03:16:38.102Z,-1.45
2018-12-16T03:17:38.077Z,-1.54
2018-12-16T03:18:38.065Z,-1.51
2018-12-16T03:19:38.206Z,-1.43
2018-12-16T03:20:38.101Z,-1.51
2018-12-16T03:21:38.057Z,-1.53
2018-12-16T03:22:38.110Z,-1.5
2018-12-16T03:23:38.135Z,-1.51
2018-12-16T03:24:38.616Z,-1.48
2018-12-16T03:25:38.027Z,-1.54
2018-12-16T03:26:41.906Z,-1.51
2018-12-16T03:27:38.093Z,-1.48
2018-12-16T03:28:38.072Z,-1.45
2018-12-16T03:30:02.682Z,-1.53
2018-12-16T03:30:40.634Z,-1.46
2018-12-16T03:31:38.288Z,-1.39
2018-12-16T03:32:38.093Z,-1.42
2018-12-16T03:33:50.585Z,-1.42
2018-12-16T03:34:38.691Z,-1.39
2018-12-16T03:35:52.345Z,-1.39
2018-12-16T03:37:52.648Z,-1.39
2018-12-16T03:38:52.343Z,-1.38
2018-12-16T03:40:33.617Z,-1.56
2018-12-16T03:41:33.444Z,-1.54
2018-12-16T03:42:34.416Z,-1.43
2018-12-16T03:43:32.327Z,-1.38
2018-12-16T03:44:32.140Z,-1.38
2018-12-16T03:45:34.155Z,-1.54
2018-12-16T03:46:33.543Z,-1.45
2018-12-16T03:47:32.142Z,-1.5
2018-12-16T03:48:32.181Z,-1.43
2018-12-16T03:50:35.898Z,-1.4
2018-12-16T03:51:35.795Z,-1.45
2018-12-16T03:52:35.844Z,-1.51
2018-12-16T03:53:35.874Z,-1.48
2018-12-16T03:54:35.817Z,-1.4
2018-12-16T03:56:56.314Z,-1.39
2018-12-16T03:57:08.355Z,-1.48
2018-12-16T03:58:42.695Z,-1.45
2018-12-16T03:59:08.310Z,-1.43
2018-12-16T04:00:08.864Z,-1.35
2018-12-16T04:01:09.455Z,-1.43
2018-12-16T04:02:08.834Z,-1.4
2018-12-16T04:03:08.888Z,-1.5
2018-12-16T04:04:08.882Z,-1.35
2018-12-16T04:05:08.924Z,-1.46
2018-12-16T04:06:21.475Z,-1.51
2018-12-16T04:07:12.794Z,-1.48
2018-12-16T04:08:08.987Z,-1.51
2018-12-16T04:09:08.910Z,-1.5
2018-12-16T04:10:08.994Z,-1.53
2018-12-16T04:11:08.809Z,-1.54
2018-12-16T04:12:08.909Z,-1.58
2018-12-16T04:13:08.856Z,-1.48
2018-12-16T04:14:08.875Z,-1.58
2018-12-16T04:15:08.897Z,-1.48
2018-12-16T04:16:08.885Z,-1.56
2018-12-16T04:17:08.890Z,-1.63
2018-12-16T04:18:09.133Z,-1.58
2018-12-16T04:19:08.862Z,-1.56
2018-12-16T04:20:08.857Z,-1.61
2018-12-16T04:21:08.921Z,-1.53
2018-12-16T04:22:08.855Z,-1.54
2018-12-16T04:23:08.936Z,-1.57
2018-12-16T04:24:08.918Z,-1.63
2018-12-16T04:25:08.892Z,-1.58
2018-12-16T04:26:08.933Z,-1.6
2018-12-16T04:27:09.003Z,-1.6
2018-12-16T04:28:09.405Z,-1.58
2018-12-16T04:29:08.869Z,-1.53
2018-12-16T04:30:08.889Z,-1.57
2018-12-16T04:31:09.170Z,-1.61
2018-12-16T04:32:08.898Z,-1.57
2018-12-16T04:33:08.939Z,-1.58
2018-12-16T04:34:08.904Z,-1.51
2018-12-16T04:35:08.879Z,-1.64
2018-12-16T04:36:08.895Z,-1.61
2018-12-16T04:37:08.909Z,-1.61
2018-12-16T04:38:08.936Z,-1.5
2018-12-16T04:39:09.568Z,-1.6
2018-12-16T04:40:08.888Z,-1.43
2018-12-16T04:41:08.926Z,-1.57
2018-12-16T04:42:08.869Z,-1.6
2018-12-16T04:43:08.872Z,-1.53
2018-12-16T04:44:10.080Z,-1.48
2018-12-16T04:45:08.917Z,-1.51
2018-12-16T04:46:08.877Z,-1.58
2018-12-16T04:47:08.914Z,-1.54
2018-12-16T04:48:08.901Z,-1.6
2018-12-16T04:49:08.899Z,-1.56
2018-12-16T04:50:08.906Z,-1.56
2018-12-16T04:51:08.895Z,-1.57
2018-12-16T04:52:08.914Z,-1.74
2018-12-16T04:53:08.875Z,-1.63
2018-12-16T04:54:08.882Z,-1.66
2018-12-16T04:55:08.895Z,-1.64
2018-12-16T04:56:08.930Z,-1.6
2018-12-16T04:57:08.913Z,-1.6
2018-12-16T04:58:08.957Z,-1.63
2018-12-16T04:59:09.008Z,-1.6
2018-12-16T05:00:08.919Z,-1.54
2018-12-16T05:01:08.907Z,-1.53
2018-12-16T05:02:08.968Z,-1.51
2018-12-16T05:03:08.979Z,-1.63
2018-12-16T05:04:08.912Z,-1.54
2018-12-16T05:05:08.922Z,-1.56
2018-12-16T05:06:08.918Z,-1.43
2018-12-16T05:07:08.975Z,-1.51
2018-12-16T05:08:08.925Z,-1.48
2018-12-16T05:09:09.175Z,-1.54
2018-12-16T05:10:08.926Z,-1.43
2018-12-16T05:11:09.002Z,-1.5
2018-12-16T05:12:09.052Z,-1.48
2018-12-16T05:13:08.925Z,-1.54
2018-12-16T05:14:08.932Z,-1.57
2018-12-16T05:15:08.945Z,-1.53
2018-12-16T05:16:08.952Z,-1.53
2018-12-16T05:17:08.981Z,-1.51
2018-12-16T05:18:09.019Z,-1.48
2018-12-16T05:19:08.963Z,-1.56
2018-12-16T05:20:09.032Z,-1.56
2018-12-16T05:21:08.966Z,-1.51
2018-12-16T05:22:08.966Z,-1.6
2018-12-16T05:23:08.919Z,-1.56
2018-12-16T05:28:26.272Z,-1.54
2018-12-16T05:28:38.522Z,-1.5
2018-12-16T05:29:38.389Z,-1.61
2018-12-16T05:30:38.404Z,-1.63
2018-12-16T05:31:38.274Z,-1.53
2018-12-16T05:32:38.511Z,-1.54
2018-12-16T05:33:38.242Z,-1.53
2018-12-16T05:34:38.190Z,-1.51
2018-12-16T05:35:38.202Z,-1.58
2018-12-16T05:36:38.233Z,-1.46
2018-12-16T05:37:38.269Z,-1.54
2018-12-16T05:38:38.234Z,-1.51
2018-12-16T05:39:38.198Z,-1.57
2018-12-16T05:40:38.262Z,-1.56
2018-12-16T05:41:38.294Z,-1.48
2018-12-16T05:42:38.246Z,-1.48
2018-12-16T05:43:38.235Z,-1.56
2018-12-16T05:44:38.251Z,-1.48
2018-12-16T05:45:38.218Z,-1.57
2018-12-16T05:46:38.243Z,-1.61
2018-12-16T05:47:38.262Z,-1.57
2018-12-16T05:48:38.237Z,-1.51
2018-12-16T05:49:38.282Z,-1.38
2018-12-16T05:50:38.260Z,-1.36
2018-12-16T05:51:38.273Z,-1.35
2018-12-16T05:52:38.243Z,-1.43
2018-12-16T05:53:38.259Z,-1.53
2018-12-16T05:54:38.288Z,-1.39
2018-12-16T05:55:38.288Z,-1.35
2018-12-16T05:56:38.319Z,-1.3
2018-12-16T05:57:39.671Z,-1.36
2018-12-16T05:58:38.263Z,-1.3
2018-12-16T05:59:38.286Z,-1.39
2018-12-16T06:00:38.881Z,-1.33
2018-12-16T06:01:38.303Z,-1.42
2018-12-16T06:02:38.360Z,-1.39
2018-12-16T06:03:38.341Z,-1.38
2018-12-16T06:04:38.279Z,-1.36
2018-12-16T06:05:38.251Z,-1.4
2018-12-16T06:06:38.302Z,-1.39
2018-12-16T06:07:38.264Z,-1.39
2018-12-16T06:08:38.302Z,-1.48
2018-12-16T06:09:38.261Z,-1.45
2018-12-16T06:10:38.359Z,-1.35
2018-12-16T06:11:38.360Z,-1.32
2018-12-16T06:12:38.331Z,-1.4
2018-12-16T06:13:38.300Z,-1.32
2018-12-16T06:14:38.319Z,-1.24
2018-12-16T06:15:38.283Z,-1.24
2018-12-16T06:16:38.647Z,-1.35
2018-12-16T06:17:38.299Z,-1.35
2018-12-16T06:18:38.369Z,-1.24
2018-12-16T06:19:38.311Z,-1.3
2018-12-16T06:20:38.327Z,-1.19
2018-12-16T06:21:38.324Z,-1.24
2018-12-16T06:22:38.364Z,-1.25
2018-12-16T06:23:38.397Z,-1.21
2018-12-16T06:28:08.674Z,-1.22
2018-12-16T06:29:08.665Z,-1.15
2018-12-16T06:30:08.634Z,-1.22
2018-12-16T06:31:08.673Z,-1.17
2018-12-16T06:32:08.736Z,-1.18
2018-12-16T06:33:08.690Z,-1.11
2018-12-16T06:34:08.747Z,-1.17
2018-12-16T06:35:08.653Z,-1.15
2018-12-16T06:36:08.741Z,-1.25
2018-12-16T06:37:08.796Z,-1.14
2018-12-16T06:38:08.706Z,-1.11
2018-12-16T06:39:09.701Z,-1.11
2018-12-16T06:40:08.696Z,-1.17
2018-12-16T06:41:08.725Z,-1.18
2018-12-16T06:42:08.773Z,-1.06
2018-12-16T06:43:09.966Z,-1.03
2018-12-16T06:44:08.784Z,-1.09
2018-12-16T06:45:08.689Z,-1.06
2018-12-16T06:46:08.694Z,-1.07
2018-12-16T06:47:08.729Z,-1.09
2018-12-16T06:48:08.735Z,-0.91
2018-12-16T06:49:08.681Z,-1.06
2018-12-16T06:50:08.748Z,-1
2018-12-16T06:51:08.787Z,-1.06
2018-12-16T06:52:10.060Z,-0.96
2018-12-16T06:53:08.714Z,-1.03
2018-12-16T06:54:08.673Z,-1.06
2018-12-16T06:55:08.750Z,-0.94
2018-12-16T06:56:12.377Z,-1
2018-12-16T06:57:08.795Z,-0.94
2018-12-16T06:58:08.674Z,-0.94
2018-12-16T06:59:08.737Z,-0.94
2018-12-16T07:00:08.743Z,-1.04
2018-12-16T07:01:08.793Z,-1.03
2018-12-16T07:02:08.867Z,-1.07
2018-12-16T07:03:08.763Z,-0.93
2018-12-16T07:04:08.740Z,-0.94
2018-12-16T07:05:08.806Z,-0.99
2018-12-16T07:06:08.726Z,-0.82
2018-12-16T07:13:34.693Z,-0.93
2018-12-16T07:13:46.756Z,-1
2018-12-16T07:14:46.752Z,-0.97
2018-12-16T07:15:46.761Z,-0.93
2018-12-16T07:16:46.803Z,-0.8
2018-12-16T07:17:46.713Z,-0.96
2018-12-16T07:18:46.922Z,-0.89
2018-12-16T07:19:46.766Z,-0.93
2018-12-16T07:20:46.761Z,-0.81
2018-12-16T07:21:46.789Z,-0.69
2018-12-16T07:22:47.169Z,-0.84
2018-12-16T07:23:46.843Z,-0.8
2018-12-16T07:24:46.752Z,-0.81
2018-12-16T07:25:46.797Z,-0.78
2018-12-16T07:26:46.751Z,-0.81
2018-12-16T07:27:46.784Z,-0.82
2018-12-16T07:28:46.843Z,-0.84
2018-12-16T07:29:46.864Z,-0.78
2018-12-16T07:30:46.742Z,-0.91
2018-12-16T07:31:46.790Z,-0.8
2018-12-16T07:32:46.819Z,-0.8
2018-12-16T07:33:47.513Z,-0.82
2018-12-16T07:34:46.823Z,-0.82
2018-12-16T07:35:46.761Z,-0.82
2018-12-16T07:36:46.754Z,-0.82
2018-12-16T07:37:46.744Z,-0.82
2018-12-16T07:38:46.778Z,-0.8
2018-12-16T07:39:46.937Z,-0.77
2018-12-16T07:40:46.827Z,-0.69
2018-12-16T07:41:46.823Z,-0.74
2018-12-16T07:42:46.775Z,-0.77
2018-12-16T07:48:03.521Z,-0.84
2018-12-16T07:48:15.531Z,-0.75
2018-12-16T07:49:15.605Z,-0.67
2018-12-16T07:50:15.527Z,-0.67
2018-12-16T07:51:15.478Z,-0.7
2018-12-16T07:52:15.644Z,-0.62
2018-12-16T07:53:15.548Z,-0.69
2018-12-16T07:54:21.607Z,-0.62
2018-12-16T07:55:15.555Z,-0.63
2018-12-16T07:56:15.582Z,-0.59
2018-12-16T07:57:15.937Z,-0.75
2018-12-16T07:58:15.517Z,-0.59
2018-12-16T07:59:15.716Z,-0.69
2018-12-16T08:00:19.357Z,-0.69
2018-12-16T08:01:15.573Z,-0.63
2018-12-16T08:02:15.572Z,-0.59
2018-12-16T08:03:15.511Z,-0.64
2018-12-16T08:04:15.516Z,-0.63
2018-12-16T08:05:15.595Z,-0.63
2018-12-16T08:06:15.579Z,-0.62
2018-12-16T08:07:15.535Z,-0.53
2018-12-16T08:08:16.270Z,-0.6
2018-12-16T08:09:15.553Z,-0.64
2018-12-16T08:10:15.523Z,-0.63
2018-12-16T08:11:15.529Z,-0.54
2018-12-16T08:12:15.575Z,-0.66
2018-12-16T08:13:15.549Z,-0.59
2018-12-16T08:14:15.568Z,-0.54
2018-12-16T08:18:44.102Z,-0.48
2018-12-16T08:19:44.099Z,-0.51
2018-12-16T08:20:44.060Z,-0.45
2018-12-16T08:21:44.062Z,-0.46
2018-12-16T08:22:44.038Z,-0.54
2018-12-16T08:23:44.104Z,-0.48
2018-12-16T08:24:44.111Z,-0.51
2018-12-16T08:25:44.324Z,-0.48
2018-12-16T08:26:44.126Z,-0.51
2018-12-16T08:27:44.015Z,-0.45
2018-12-16T08:28:44.113Z,-0.51
2018-12-16T08:29:44.072Z,-0.42
2018-12-16T08:34:13.636Z,-0.45
2018-12-16T08:35:13.527Z,-0.41
2018-12-16T08:36:14.190Z,-0.49
2018-12-16T08:37:13.558Z,-0.39
2018-12-16T08:38:13.575Z,-0.44
2018-12-16T08:39:13.568Z,-0.51
2018-12-16T08:40:13.643Z,-0.54
2018-12-16T08:41:13.566Z,-0.53
2018-12-16T08:42:13.531Z,-0.45
2018-12-16T08:43:13.591Z,-0.36
2018-12-16T08:44:13.614Z,-0.36
2018-12-16T08:45:13.664Z,-0.39
2018-12-16T08:46:13.570Z,-0.41
2018-12-16T08:47:13.533Z,-0.3
2018-12-16T08:48:13.559Z,-0.39
2018-12-16T08:49:13.602Z,-0.33
2018-12-16T08:50:13.655Z,-0.39
2018-12-16T08:51:13.544Z,-0.39
2018-12-16T08:52:13.623Z,-0.36
2018-12-16T08:53:13.583Z,-0.42
2018-12-16T08:54:13.641Z,-0.27
2018-12-16T08:59:30.654Z,-0.2
2018-12-16T08:59:43.065Z,-0.17
2018-12-16T09:00:43.041Z,-0.27
2018-12-16T09:01:43.013Z,-0.26
2018-12-16T09:02:42.960Z,-0.18
2018-12-16T09:03:43.012Z,-0.28
2018-12-16T09:08:12.434Z,-0.26
2018-12-16T09:09:12.480Z,-0.23
2018-12-16T09:10:13.805Z,-0.21
2018-12-16T09:11:12.462Z,-0.21
2018-12-16T09:12:12.504Z,-0.27
2018-12-16T09:13:12.597Z,-0.17
2018-12-16T09:14:12.512Z,-0.17
2018-12-16T09:15:12.551Z,-0.1
2018-12-16T09:16:12.520Z,-0.18
2018-12-16T09:17:12.497Z,-0.24
2018-12-16T09:18:12.493Z,-0.23
2018-12-16T09:19:12.501Z,-0.2
2018-12-16T09:20:12.512Z,-0.27
2018-12-16T09:21:12.459Z,-0.2
2018-12-16T09:22:12.463Z,-0.17
2018-12-16T09:23:12.450Z,-0.17
2018-12-16T09:24:12.484Z,-0.15
2018-12-16T09:25:12.490Z,-0.27
2018-12-16T09:26:12.517Z,-0.17
2018-12-16T09:27:12.554Z,-0.26
2018-12-16T09:28:12.477Z,-0.23
2018-12-16T09:29:12.506Z,-0.23
2018-12-16T09:30:12.546Z,-0.23
2018-12-16T09:31:12.534Z,-0.31
2018-12-16T09:32:12.579Z,-0.31
2018-12-16T09:33:12.560Z,-0.27
2018-12-16T09:34:12.495Z,-0.28
2018-12-16T09:35:12.535Z,-0.35
2018-12-16T09:36:12.490Z,-0.41
2018-12-16T09:37:12.577Z,-0.42
2018-12-16T09:38:12.595Z,-0.36
2018-12-16T09:39:12.574Z,-0.44
2018-12-16T09:40:12.534Z,-0.39
2018-12-16T09:41:12.572Z,-0.38
2018-12-16T09:42:12.520Z,-0.33
2018-12-16T09:43:12.534Z,-0.35
2018-12-16T09:44:12.592Z,-0.27
2018-12-16T09:45:12.522Z,-0.24
2018-12-16T09:46:12.670Z,-0.31
2018-12-16T09:47:12.480Z,-0.38
2018-12-16T09:48:12.565Z,-0.35
2018-12-16T09:49:12.536Z,-0.21
2018-12-16T09:50:12.739Z,-0.24
2018-12-16T09:51:12.564Z,-0.27
2018-12-16T09:52:12.523Z,-0.36
2018-12-16T09:53:12.505Z,-0.27
2018-12-16T09:54:12.700Z,-0.21
2018-12-16T09:55:12.543Z,-0.33
2018-12-16T09:56:12.590Z,-0.33
2018-12-16T09:57:12.519Z,-0.33
2018-12-16T09:58:12.524Z,-0.41
2018-12-16T09:59:12.557Z,-0.41
2018-12-16T10:00:12.847Z,-0.38
2018-12-16T10:01:12.540Z,-0.33
2018-12-16T10:02:12.535Z,-0.24
2018-12-16T10:03:12.562Z,-0.31
2018-12-16T10:04:12.563Z,-0.35
2018-12-16T10:05:12.576Z,-0.31
2018-12-16T10:06:12.536Z,-0.3
2018-12-16T10:07:12.590Z,-0.13
2018-12-16T10:08:14.283Z,-0.24
2018-12-16T10:09:12.537Z,-0.24
2018-12-16T10:10:12.578Z,-0.3
2018-12-16T10:11:12.583Z,-0.2
2018-12-16T10:12:12.577Z,-0.28
2018-12-16T10:13:12.553Z,-0.35
2018-12-16T10:14:12.714Z,-0.3
2018-12-16T10:15:12.556Z,-0.3
2018-12-16T10:16:12.567Z,-0.26
2018-12-16T10:17:12.603Z,-0.28
2018-12-16T10:18:12.643Z,-0.24
2018-12-16T10:19:12.562Z,-0.33
2018-12-16T10:20:12.572Z,-0.38
2018-12-16T10:21:12.645Z,-0.21
2018-12-16T10:22:12.613Z,-0.23
2018-12-16T10:23:12.588Z,-0.31
2018-12-16T10:24:12.722Z,-0.21
2018-12-16T10:25:12.719Z,-0.28
2018-12-16T10:26:12.672Z,-0.27
2018-12-16T10:27:12.714Z,-0.28
2018-12-16T10:28:38.302Z,-0.31
2018-12-16T10:29:12.600Z,-0.36
2018-12-16T10:30:12.590Z,-0.24
2018-12-16T10:31:12.656Z,-0.26
2018-12-16T10:32:12.645Z,-0.26
2018-12-16T10:33:24.654Z,-0.3
2018-12-16T10:34:12.614Z,-0.38
2018-12-16T10:35:12.605Z,-0.33
2018-12-16T10:36:12.656Z,-0.36
2018-12-16T10:37:12.646Z,-0.41
2018-12-16T10:38:22.721Z,-0.35
2018-12-16T10:39:12.601Z,-0.44
2018-12-16T10:40:12.777Z,-0.38
2018-12-16T10:41:25.074Z,-0.44
2018-12-16T10:42:12.588Z,-0.46
2018-12-16T10:43:17.355Z,-0.39
2018-12-16T10:44:12.596Z,-0.39
2018-12-16T10:45:12.615Z,-0.35
2018-12-16T10:46:12.638Z,-0.26
2018-12-16T10:47:12.802Z,-0.28
2018-12-16T10:48:13.323Z,-0.35
2018-12-16T10:49:12.652Z,-0.41
2018-12-16T10:50:12.647Z,-0.3
2018-12-16T10:51:12.598Z,-0.45
2018-12-16T10:52:12.698Z,-0.27
2018-12-16T10:53:12.635Z,-0.39
2018-12-16T10:54:12.645Z,-0.36
2018-12-16T10:55:12.654Z,-0.33
2018-12-16T10:56:12.629Z,-0.39
2018-12-16T10:57:12.670Z,-0.3
2018-12-16T10:58:12.714Z,-0.24
2018-12-16T10:59:12.681Z,-0.31
2018-12-16T11:00:12.862Z,-0.3
2018-12-16T11:01:12.765Z,-0.2
2018-12-16T11:02:12.740Z,-0.31
2018-12-16T11:03:12.705Z,-0.31
2018-12-16T11:04:12.683Z,-0.23
2018-12-16T11:05:12.694Z,-0.27
2018-12-16T11:06:13.621Z,-0.3
2018-12-16T11:07:12.607Z,-0.41
2018-12-16T11:08:12.803Z,-0.36
2018-12-16T11:09:12.659Z,-0.27
2018-12-16T11:10:12.656Z,-0.28
2018-12-16T11:11:12.707Z,-0.3
2018-12-16T11:12:12.795Z,-0.3
2018-12-16T11:13:12.831Z,-0.26
2018-12-16T11:14:14.157Z,-0.17
2018-12-16T11:15:12.830Z,-0.09
2018-12-16T11:16:12.764Z,-0.1
2018-12-16T11:17:12.785Z,-0.12
2018-12-16T11:18:16.745Z,-0.09
2018-12-16T11:19:12.809Z,-0.12
2018-12-16T11:20:12.963Z,-0.15
2018-12-16T11:21:12.693Z,-0.02
2018-12-16T11:22:12.803Z,-0.12
2018-12-16T11:23:12.941Z,-0.2
2018-12-16T11:24:12.997Z,-0.06
2018-12-16T11:25:12.974Z,-0.1
2018-12-16T11:26:12.875Z,-0.2
2018-12-16T11:27:13.595Z,-0.24
2018-12-16T11:28:12.758Z,-0.12
2018-12-16T11:29:12.692Z,-0.2
2018-12-16T11:30:12.822Z,-0.26
2018-12-16T11:31:12.931Z,-0.17
2018-12-16T11:32:12.765Z,-0.21
2018-12-16T11:33:12.806Z,-0.23
2018-12-16T11:34:12.796Z,-0.24
2018-12-16T11:35:13.077Z,-0.21
2018-12-16T11:36:12.717Z,-0.23
2018-12-16T11:37:12.695Z,-0.13
2018-12-16T11:38:12.853Z,-0.18
2018-12-16T11:39:12.778Z,-0.23
2018-12-16T11:40:13.054Z,-0.28
2018-12-16T11:41:12.780Z,-0.2
2018-12-16T11:42:12.914Z,-0.3
2018-12-16T11:43:13.798Z,-0.36
2018-12-16T11:44:12.716Z,-0.27
2018-12-16T11:45:13.014Z,-0.27
2018-12-16T11:46:12.826Z,-0.2
2018-12-16T11:47:12.796Z,-0.28
2018-12-16T11:48:12.842Z,-0.17
2018-12-16T11:49:12.804Z,-0.21
2018-12-16T11:50:13.188Z,-0.23
2018-12-16T11:51:13.133Z,-0.2
2018-12-16T11:52:12.813Z,-0.18
2018-12-16T11:53:12.802Z,-0.18
2018-12-16T11:54:12.860Z,-0.23
2018-12-16T11:55:18.548Z,-0.23
2018-12-16T11:56:13.831Z,-0.26
2018-12-16T11:57:12.827Z,-0.23
2018-12-16T11:58:12.889Z,-0.26
2018-12-16T11:59:12.842Z,-0.15
2018-12-16T12:00:13.095Z,-0.27
2018-12-16T12:01:13.586Z,-0.31
2018-12-16T12:02:13.068Z,-0.26
2018-12-16T12:03:13.043Z,-0.26
2018-12-16T12:04:13.021Z,-0.26
2018-12-16T12:05:12.826Z,-0.21
2018-12-16T12:06:12.987Z,-0.2
2018-12-16T12:07:12.878Z,-0.2
2018-12-16T12:08:14.140Z,-0.24
2018-12-16T12:09:12.981Z,-0.1
2018-12-16T12:10:12.987Z,-0.1
2018-12-16T12:11:13.222Z,-0.07
2018-12-16T12:12:13.170Z,-0.09
2018-12-16T12:13:13.191Z,-0.17
2018-12-16T12:14:13.436Z,-0.18
2018-12-16T12:15:13.127Z,-0.18
2018-12-16T12:16:13.330Z,-0.06
2018-12-16T12:17:12.860Z,-0.03
2018-12-16T12:18:12.835Z,-0.05
2018-12-16T12:19:12.930Z,0.02
2018-12-16T12:20:13.462Z,0.06
2018-12-16T12:21:13.303Z,-0.02
2018-12-16T12:22:12.981Z,0.18
2018-12-16T12:23:13.521Z,0.12
2018-12-16T12:24:13.049Z,0.09
2018-12-16T12:25:19.610Z,0.15
2018-12-16T12:26:13.297Z,0.15
2018-12-16T12:27:13.156Z,0.15
2018-12-16T12:28:13.521Z,0.12
2018-12-16T12:29:13.727Z,0.3
2018-12-16T12:30:13.589Z,0.31
2018-12-16T12:31:13.593Z,0.15
2018-12-16T12:32:13.485Z,0.24
2018-12-16T12:33:13.548Z,0.27
2018-12-16T12:34:14.205Z,0.23
2018-12-16T12:35:13.883Z,0.3
2018-12-16T12:36:13.637Z,0.24
2018-12-16T12:37:13.793Z,0.31
2018-12-16T12:38:13.482Z,0.2
2018-12-16T12:39:13.702Z,0.29
2018-12-16T12:40:13.656Z,0.16
2018-12-16T12:41:13.707Z,0.26
2018-12-16T12:42:13.608Z,0.24
2018-12-16T12:43:13.627Z,0.16
2018-12-16T12:44:13.673Z,0.19
2018-12-16T12:45:13.436Z,0.26
2018-12-16T12:46:13.553Z,0.16
2018-12-16T12:47:13.334Z,0.27
2018-12-16T12:54:36.420Z,0.34
2018-12-16T12:54:49.940Z,0.37
2018-12-16T12:55:49.862Z,0.29
2018-12-16T12:56:49.489Z,0.3
2018-12-16T12:57:49.791Z,0.3
2018-12-16T12:58:52.763Z,0.31
2018-12-16T12:59:49.669Z,0.33
2018-12-16T13:00:50.061Z,0.34
2018-12-16T13:01:49.930Z,0.36
2018-12-16T13:02:49.859Z,0.4
2018-12-16T13:03:50.042Z,0.4
2018-12-16T13:04:49.979Z,0.47
2018-12-16T13:05:49.982Z,0.45
2018-12-16T13:06:49.867Z,0.51
2018-12-16T13:07:49.716Z,0.44
2018-12-16T13:08:49.651Z,0.44
2018-12-16T13:09:50.322Z,0.44
2018-12-16T13:10:50.212Z,0.47
2018-12-16T13:11:50.307Z,0.39
2018-12-16T13:12:49.898Z,0.48
2018-12-16T13:13:50.169Z,0.49
2018-12-16T13:14:49.969Z,0.59
2018-12-16T13:15:50.187Z,0.73
2018-12-16T13:16:50.107Z,0.82
2018-12-16T13:17:50.039Z,0.78
2018-12-16T13:18:50.116Z,0.85
2018-12-16T13:19:50.078Z,0.94
2018-12-16T13:20:50.025Z,0.81
2018-12-16T13:21:50.098Z,0.88
2018-12-16T13:22:50.083Z,1.14
2018-12-16T13:23:50.088Z,1.06
2018-12-16T13:24:50.201Z,1.03
2018-12-16T13:25:50.179Z,0.99
2018-12-16T13:26:49.915Z,1.07
2018-12-16T13:27:50.104Z,1.03
2018-12-16T13:28:49.980Z,1.04
2018-12-16T13:29:49.971Z,1.09
2018-12-16T13:30:50.297Z,1.12
2018-12-16T13:31:50.214Z,1.1
2018-12-16T13:32:50.314Z,1.06
2018-12-16T13:33:50.097Z,1.09
2018-12-16T13:34:50.256Z,1.07
2018-12-16T13:35:50.087Z,1.1
2018-12-16T13:36:56.015Z,1.09
2018-12-16T13:37:50.250Z,0.96
2018-12-16T13:38:50.157Z,1.03
2018-12-16T13:39:50.187Z,0.92
2018-12-16T13:40:50.186Z,0.99
2018-12-16T13:41:50.024Z,1.06
2018-12-16T13:42:50.475Z,1
2018-12-16T13:43:50.172Z,1.06
2018-12-16T13:44:49.960Z,1
2018-12-16T13:45:50.209Z,0.82
2018-12-16T13:46:50.189Z,0.81
2018-12-16T13:47:50.017Z,0.86
2018-12-16T13:48:50.218Z,2.05
2018-12-16T13:49:50.617Z,1.4
2018-12-16T13:50:49.956Z,1.36
2018-12-16T13:51:50.109Z,1.31
2018-12-16T13:52:49.992Z,1.3
2018-12-16T13:53:50.227Z,1.18
2018-12-16T13:54:50.080Z,1.1
2018-12-16T13:55:50.051Z,1.1